createdAt,value
2022-11-14T00:00:54.612Z,9.88
2022-11-14T00:03:21.101Z,8.73
2022-11-14T00:05:47.654Z,9.88
2022-11-14T00:08:15.752Z,12.25
2022-11-14T00:10:42.390Z,9.85
2022-11-14T00:13:08.843Z,10.57
2022-11-14T00:15:35.291Z,8.77
2022-11-14T00:18:01.738Z,10.15
2022-11-14T00:20:28.186Z,10.02
2022-11-14T00:22:54.633Z,10.35
2022-11-14T00:25:21.098Z,11.15
2022-11-14T00:27:47.541Z,10.88
2022-11-14T00:30:14.088Z,8.82
2022-11-14T00:32:40.547Z,10.80
2022-11-14T00:35:09.086Z,10.45
2022-11-14T00:37:35.564Z,12.18
2022-11-14T00:40:02.095Z,11.30
2022-11-14T00:42:28.631Z,12.10
2022-11-14T00:44:55.109Z,10.80
2022-11-14T00:47:21.695Z,10.48
2022-11-14T00:49:48.155Z,11.90
2022-11-14T00:52:14.671Z,12.85
2022-11-14T00:54:41.115Z,11.05
2022-11-14T00:57:07.670Z,12.43
2022-11-14T00:59:34.118Z,12.00
2022-11-14T01:02:00.584Z,12.98
2022-11-14T01:04:27.190Z,23.27
2022-11-14T01:06:53.672Z,12.55
2022-11-14T01:09:20.204Z,12.07
2022-11-14T01:11:46.707Z,11.95
2022-11-14T01:14:13.144Z,10.63
2022-11-14T01:16:39.647Z,11.15
2022-11-14T01:19:06.130Z,12.00
2022-11-14T01:21:32.625Z,10.93
2022-11-14T01:23:59.111Z,12.82
2022-11-14T01:26:25.566Z,11.85
2022-11-14T01:28:53.859Z,11.45
2022-11-14T01:31:23.680Z,12.48
2022-11-14T01:33:51.642Z,11.77
2022-11-14T01:36:18.714Z,12.68
2022-11-14T01:38:45.488Z,13.32
2022-11-14T01:41:14.392Z,13.60
2022-11-14T01:43:41.206Z,12.82
2022-11-14T01:46:25.923Z,12.10
2022-11-14T01:49:12.629Z,11.93
2022-11-14T01:51:45.798Z,13.10
2022-11-14T01:54:19.614Z,12.07
2022-11-14T01:56:53.539Z,13.07
2022-11-14T01:59:24.565Z,13.57
2022-11-14T02:01:52.681Z,13.07
2022-11-14T02:04:33.456Z,13.50
2022-11-14T02:07:01.798Z,14.68
2022-11-14T02:09:30.994Z,13.43
2022-11-14T02:11:58.742Z,14.88
2022-11-14T02:14:26.359Z,13.15
2022-11-14T02:17:14.834Z,12.95
2022-11-14T02:20:08.002Z,12.52
2022-11-14T02:22:34.440Z,13.93
2022-11-14T02:25:00.921Z,13.35
2022-11-14T02:27:27.703Z,14.43
2022-11-14T02:29:54.144Z,17.13
2022-11-14T02:32:20.618Z,16.77
2022-11-14T02:34:47.066Z,15.65
2022-11-14T02:37:13.527Z,18.17
2022-11-14T02:39:40.721Z,16.33
2022-11-14T02:42:07.188Z,17.38
2022-11-14T02:44:33.725Z,17.42
2022-11-14T02:47:00.200Z,21.05
2022-11-14T02:49:26.720Z,18.73
2022-11-14T02:51:53.176Z,18.95
2022-11-14T02:54:19.642Z,21.90
2022-11-14T02:56:46.110Z,23.25
2022-11-14T02:59:12.550Z,22.55
2022-11-14T03:01:39.083Z,23.05
2022-11-14T03:04:05.648Z,22.38
2022-11-14T03:06:32.202Z,21.95
2022-11-14T03:08:58.659Z,22.42
2022-11-14T03:11:25.128Z,22.58
2022-11-14T03:13:51.585Z,25.48
2022-11-14T03:16:18.081Z,25.20
2022-11-14T03:18:44.523Z,24.17
2022-11-14T03:21:13.969Z,25.05
2022-11-14T03:23:40.413Z,24.38
2022-11-14T03:26:08.545Z,24.90
2022-11-14T03:28:35.557Z,27.35
2022-11-14T03:31:02.142Z,29.05
2022-11-14T03:33:28.646Z,25.30
2022-11-14T03:35:55.169Z,29.00
2022-11-14T03:38:24.478Z,28.13
2022-11-14T03:40:51.666Z,26.90
2022-11-14T03:43:19.418Z,28.48
2022-11-14T03:45:46.274Z,30.33
2022-11-14T03:48:12.952Z,28.15
2022-11-14T03:50:40.006Z,27.33
2022-11-14T03:53:06.719Z,28.77
2022-11-14T03:55:33.340Z,29.35
2022-11-14T03:57:59.803Z,30.08
2022-11-14T04:00:28.714Z,30.40
2022-11-14T04:02:56.108Z,30.38
2022-11-14T04:05:23.525Z,31.90
2022-11-14T04:07:50.208Z,31.38
2022-11-14T04:10:17.854Z,34.28
2022-11-14T04:12:55.083Z,34.30
2022-11-14T04:15:21.534Z,31.23
2022-11-14T04:17:48.018Z,29.88
2022-11-14T04:20:15.016Z,35.38
2022-11-14T04:22:41.582Z,35.22
2022-11-14T04:25:08.813Z,35.22
2022-11-14T04:27:35.283Z,34.85
2022-11-14T04:30:01.744Z,34.55
2022-11-14T04:32:28.205Z,35.28
2022-11-14T04:34:54.648Z,34.45
2022-11-14T04:37:21.125Z,31.35
2022-11-14T04:39:47.587Z,37.47
2022-11-14T04:42:14.094Z,35.42
2022-11-14T04:44:40.571Z,35.92
2022-11-14T04:47:07.267Z,33.60
2022-11-14T04:49:33.732Z,36.47
2022-11-14T04:52:00.176Z,37.65
2022-11-14T04:54:26.659Z,33.17
2022-11-14T04:56:53.121Z,31.08
2022-11-14T04:59:21.068Z,31.85
2022-11-14T05:01:47.926Z,32.38
2022-11-14T05:04:14.495Z,30.88
2022-11-14T05:06:40.993Z,32.90
2022-11-14T05:09:07.491Z,32.03
2022-11-14T05:11:33.951Z,30.63
2022-11-14T05:14:00.416Z,32.25
2022-11-14T05:16:26.860Z,33.88
2022-11-14T05:18:54.602Z,31.25
2022-11-14T05:21:21.101Z,29.88
2022-11-14T05:23:47.559Z,32.90
2022-11-14T05:26:16.125Z,32.45
2022-11-14T05:28:42.606Z,33.80
2022-11-14T05:31:13.193Z,31.02
2022-11-14T05:33:39.659Z,30.48
2022-11-14T05:36:08.145Z,33.08
2022-11-14T05:38:34.933Z,31.48
2022-11-14T05:41:13.808Z,31.42
2022-11-14T05:43:40.856Z,30.23
2022-11-14T05:46:09.942Z,28.95
2022-11-14T05:48:36.778Z,32.28
2022-11-14T05:51:04.593Z,31.02
2022-11-14T05:53:33.327Z,28.10
2022-11-14T05:56:09.104Z,29.65
2022-11-14T05:58:35.664Z,33.65
2022-11-14T06:01:20.155Z,29.92
2022-11-14T06:03:50.819Z,30.90
2022-11-14T06:06:19.655Z,30.98
2022-11-14T06:08:46.309Z,31.33
2022-11-14T06:11:15.148Z,32.47
2022-11-14T06:13:42.181Z,32.40
2022-11-14T06:16:19.341Z,33.25
2022-11-14T06:18:46.135Z,32.35
2022-11-14T06:21:20.183Z,34.17
2022-11-14T06:23:47.036Z,30.65
2022-11-14T06:26:24.948Z,33.80
2022-11-14T06:28:52.389Z,30.23
2022-11-14T06:31:20.291Z,32.40
2022-11-14T06:33:46.942Z,30.67
2022-11-14T06:36:13.406Z,32.08
2022-11-14T06:38:40.885Z,32.55
2022-11-14T06:41:12.906Z,32.38
2022-11-14T06:43:41.223Z,31.23
2022-11-14T06:46:09.452Z,31.88
2022-11-14T06:48:41.082Z,30.05
2022-11-14T06:51:07.795Z,33.28
2022-11-14T06:53:35.650Z,30.17
2022-11-14T06:56:04.734Z,31.40
2022-11-14T06:58:33.593Z,36.03
2022-11-14T07:01:14.659Z,32.47
2022-11-14T07:03:41.750Z,33.20
2022-11-14T07:06:10.342Z,32.00
2022-11-14T07:08:36.988Z,31.95
2022-11-14T07:11:07.482Z,32.15
2022-11-14T07:13:34.346Z,30.13
2022-11-14T07:16:00.945Z,33.42
2022-11-14T07:18:29.580Z,31.13
2022-11-14T07:20:57.809Z,30.55
2022-11-14T07:23:24.279Z,32.08
2022-11-14T07:25:50.805Z,30.55
2022-11-14T07:28:17.253Z,28.42
2022-11-14T07:30:43.705Z,31.80
2022-11-14T07:33:11.177Z,28.77
2022-11-14T07:35:40.798Z,30.77
2022-11-14T07:38:07.236Z,28.85
2022-11-14T07:40:33.752Z,28.70
2022-11-14T07:43:00.974Z,29.20
2022-11-14T07:45:28.898Z,33.80
2022-11-14T07:48:00.010Z,30.20
2022-11-14T07:50:28.060Z,29.52
2022-11-14T07:52:55.718Z,29.63
2022-11-14T07:55:22.376Z,30.42
2022-11-14T07:57:52.544Z,29.88
2022-11-14T08:00:19.086Z,31.55
2022-11-14T08:02:46.028Z,28.80
2022-11-14T08:05:12.561Z,31.20
2022-11-14T08:07:39.095Z,29.58
2022-11-14T08:10:06.143Z,31.08
2022-11-14T08:12:32.664Z,28.13
2022-11-14T08:14:59.139Z,29.77
2022-11-14T08:17:25.608Z,27.38
2022-11-14T08:19:52.234Z,31.85
2022-11-14T08:22:18.718Z,29.52
2022-11-14T08:24:45.179Z,30.58
2022-11-14T08:27:11.625Z,28.70
2022-11-14T08:29:38.075Z,30.77
2022-11-14T08:32:04.533Z,31.48
2022-11-14T08:34:31.001Z,28.70
2022-11-14T08:36:58.260Z,30.40
2022-11-14T08:39:24.750Z,28.10
2022-11-14T08:41:51.226Z,30.63
2022-11-14T08:44:18.054Z,29.35
2022-11-14T08:46:44.601Z,31.15
2022-11-14T08:49:11.066Z,30.20
2022-11-14T08:51:37.517Z,29.02
2022-11-14T08:54:04.060Z,28.02
2022-11-14T08:56:30.538Z,30.42
2022-11-14T08:58:56.994Z,28.38
2022-11-14T09:01:23.471Z,30.35
2022-11-14T09:03:52.235Z,25.75
2022-11-14T09:06:22.001Z,30.40
2022-11-14T09:08:48.450Z,31.15
2022-11-14T09:11:19.043Z,31.90
2022-11-14T09:13:46.128Z,30.10
2022-11-14T09:16:12.581Z,29.85
2022-11-14T09:18:39.050Z,31.52
2022-11-14T09:21:07.418Z,34.97
2022-11-14T09:23:34.570Z,29.55
2022-11-14T09:26:08.945Z,36.22
2022-11-14T09:28:35.582Z,29.83
2022-11-14T09:31:07.553Z,33.90
2022-11-14T09:33:34.607Z,31.10
2022-11-14T09:36:02.848Z,30.85
2022-11-14T09:38:35.448Z,30.77
2022-11-14T09:41:16.298Z,33.63
2022-11-14T09:44:23.241Z,32.03
2022-11-14T09:47:03.719Z,34.05
2022-11-14T09:49:38.058Z,32.58
2022-11-14T09:52:39.143Z,32.15
2022-11-14T09:55:12.448Z,32.85
2022-11-14T09:57:41.686Z,32.72
2022-11-14T10:00:22.901Z,33.70
2022-11-14T10:02:58.328Z,32.42
2022-11-14T10:05:50.975Z,33.35
2022-11-14T10:08:39.134Z,31.77
2022-11-14T10:11:49.938Z,33.15
2022-11-14T10:14:37.622Z,31.30
2022-11-14T10:17:29.592Z,33.58
2022-11-14T10:20:04.228Z,35.90
2022-11-14T10:23:01.765Z,32.10
2022-11-14T10:25:51.537Z,30.77
2022-11-14T10:28:21.568Z,31.27
2022-11-14T10:30:54.020Z,32.38
2022-11-14T10:33:30.981Z,34.70
2022-11-14T10:36:02.918Z,30.67
2022-11-14T10:38:34.805Z,33.55
2022-11-14T10:41:03.723Z,33.83
2022-11-14T10:43:34.278Z,30.40
2022-11-14T10:46:20.917Z,33.45
2022-11-14T10:48:49.761Z,31.25
2022-11-14T10:51:24.562Z,33.58
2022-11-14T10:53:57.298Z,33.75
2022-11-14T10:56:23.685Z,29.20
2022-11-14T10:58:50.468Z,35.97
2022-11-14T11:01:37.388Z,37.30
2022-11-14T11:04:19.900Z,34.38
2022-11-14T11:06:46.514Z,37.75
2022-11-14T11:09:34.036Z,37.88
2022-11-14T11:12:02.004Z,37.65
2022-11-14T11:14:29.362Z,32.22
2022-11-14T11:17:15.537Z,32.47
2022-11-14T11:19:42.628Z,31.83
2022-11-14T11:22:30.860Z,34.42
2022-11-14T11:24:57.421Z,36.00
2022-11-14T11:27:28.697Z,35.53
2022-11-14T11:30:08.034Z,36.55
2022-11-14T11:32:34.842Z,33.60
2022-11-14T11:35:03.377Z,34.30
2022-11-14T11:37:37.043Z,39.65
2022-11-14T11:40:05.356Z,36.22
2022-11-14T11:43:31.713Z,37.70
2022-11-14T11:45:29.358Z,39.35
2022-11-14T11:48:04.156Z,37.83
2022-11-14T11:50:30.614Z,34.85
2022-11-14T11:53:34.372Z,37.85
2022-11-14T11:56:13.247Z,38.88
2022-11-14T11:58:48.408Z,37.65
2022-11-14T12:01:15.293Z,38.28
2022-11-14T12:03:49.425Z,39.90
2022-11-14T12:06:27.300Z,38.90
2022-11-14T12:09:03.957Z,38.80
2022-11-14T12:11:32.827Z,37.85
2022-11-14T12:14:27.817Z,39.75
2022-11-14T12:17:40.152Z,34.20
2022-11-14T12:20:31.841Z,35.85
2022-11-14T12:23:13.507Z,38.05
2022-11-14T12:25:48.495Z,36.13
2022-11-14T12:28:19.559Z,34.58
2022-11-14T12:30:52.689Z,35.17
2022-11-14T12:33:31.336Z,38.55
2022-11-14T12:36:06.454Z,38.75
2022-11-14T12:38:42.404Z,37.30
2022-11-14T12:41:09.280Z,36.63
2022-11-14T12:43:38.528Z,39.97
2022-11-14T12:46:08.579Z,42.63
2022-11-14T12:48:45.455Z,39.35
2022-11-14T12:51:30.171Z,38.78
2022-11-14T12:53:57.782Z,40.20
2022-11-14T12:56:30.447Z,40.45
2022-11-14T12:59:16.074Z,40.30
2022-11-14T13:01:52.607Z,44.45
2022-11-14T13:04:40.264Z,43.00
2022-11-14T13:07:38.260Z,42.20
2022-11-14T13:10:29.431Z,40.58
2022-11-14T13:13:33.552Z,43.33
2022-11-14T13:19:30.507Z,42.28
2022-11-14T13:22:11.754Z,46.67
2022-11-14T13:25:02.296Z,40.75
2022-11-14T13:28:00.261Z,43.17
2022-11-14T13:30:17.434Z,43.50
2022-11-14T13:32:46.364Z,45.03
2022-11-14T13:35:33.910Z,42.50
2022-11-14T13:38:11.709Z,41.58
2022-11-14T13:41:01.796Z,40.58
2022-11-14T13:43:56.366Z,40.95
2022-11-14T13:46:50.768Z,40.83
2022-11-14T13:49:41.817Z,40.40
2022-11-14T13:52:08.530Z,38.50
2022-11-14T13:54:34.980Z,39.63
2022-11-14T13:57:08.240Z,37.38
2022-11-14T13:59:39.690Z,42.22
2022-11-14T14:02:27.602Z,40.75
2022-11-14T14:05:04.681Z,39.95
2022-11-14T14:08:11.820Z,40.70
2022-11-14T14:10:42.895Z,41.70
2022-11-14T14:13:30.792Z,40.72
2022-11-14T14:16:33.038Z,40.00
2022-11-14T14:19:25.735Z,42.13
2022-11-14T14:22:06.888Z,36.07
2022-11-14T14:24:42.284Z,39.38
2022-11-14T14:27:39.731Z,45.50
2022-11-14T14:30:15.237Z,44.03
2022-11-14T14:32:41.735Z,43.70
2022-11-14T14:35:28.772Z,43.30
2022-11-14T14:37:56.918Z,43.30
2022-11-14T14:40:35.890Z,46.22
2022-11-14T14:43:05.483Z,46.58
2022-11-14T14:45:36.281Z,44.25
2022-11-14T14:48:06.107Z,44.25
2022-11-14T14:50:40.189Z,45.22
2022-11-14T14:53:20.010Z,45.75
2022-11-14T14:56:03.727Z,46.00
2022-11-14T14:58:33.026Z,43.70
2022-11-14T15:01:02.611Z,47.08
2022-11-14T15:03:58.304Z,48.13
2022-11-14T15:06:31.797Z,48.17
2022-11-14T15:09:01.054Z,44.45
2022-11-14T15:11:32.412Z,46.75
2022-11-14T15:14:00.731Z,47.30
2022-11-14T15:16:27.727Z,48.65
2022-11-14T15:18:55.697Z,46.17
2022-11-14T15:21:24.963Z,43.50
2022-11-14T15:24:14.734Z,46.95
2022-11-14T15:26:43.445Z,50.10
2022-11-14T15:29:20.700Z,48.50
2022-11-14T15:31:49.221Z,47.75
2022-11-14T15:34:27.675Z,49.53
2022-11-14T15:37:10.326Z,44.38
2022-11-14T15:39:37.500Z,48.33
2022-11-14T15:42:31.841Z,51.22
2022-11-14T15:44:58.358Z,46.53
2022-11-14T15:47:29.857Z,44.72
2022-11-14T15:50:23.667Z,47.95
2022-11-14T15:52:55.238Z,47.17
2022-11-14T15:55:23.709Z,50.58
2022-11-14T15:58:00.918Z,53.65
2022-11-14T16:00:44.411Z,54.60
2022-11-14T16:03:12.376Z,51.67
2022-11-14T16:05:38.849Z,51.97
2022-11-14T16:08:05.437Z,51.90
2022-11-14T16:10:31.896Z,56.92
2022-11-14T16:12:58.384Z,57.38
2022-11-14T16:15:24.866Z,57.08
2022-11-14T16:17:51.352Z,57.40
2022-11-14T16:20:19.953Z,55.22
2022-11-14T16:22:48.148Z,52.92
2022-11-14T16:25:18.546Z,56.38
2022-11-14T16:27:45.385Z,60.25
2022-11-14T16:30:17.145Z,56.97
2022-11-14T16:32:48.069Z,56.85
2022-11-14T16:35:22.245Z,59.85
2022-11-14T16:37:49.370Z,54.65
2022-11-14T16:40:27.643Z,58.33
2022-11-14T16:42:55.392Z,52.40
2022-11-14T16:45:22.098Z,59.60
2022-11-14T16:47:49.241Z,57.95
2022-11-14T16:50:16.423Z,52.30
2022-11-14T16:52:42.888Z,57.38
2022-11-14T16:55:10.817Z,56.28
2022-11-14T16:57:37.747Z,57.55
2022-11-14T17:00:06.343Z,52.53
2022-11-14T17:02:32.818Z,57.50
2022-11-14T17:04:59.315Z,58.28
2022-11-14T17:07:25.843Z,56.42
2022-11-14T17:09:52.384Z,55.60
2022-11-14T17:12:18.855Z,56.15
2022-11-14T17:14:45.313Z,64.22
2022-11-14T17:17:11.791Z,62.85
2022-11-14T17:19:45.523Z,59.75
2022-11-14T17:22:13.420Z,61.92
2022-11-14T17:24:40.447Z,55.20
2022-11-14T17:27:07.381Z,54.03
2022-11-14T17:29:34.006Z,56.20
2022-11-14T17:32:01.076Z,56.17
2022-11-14T17:34:28.004Z,60.78
2022-11-14T17:36:54.456Z,62.50
2022-11-14T17:39:20.962Z,58.90
2022-11-14T17:41:47.514Z,55.72
2022-11-14T17:44:13.977Z,62.33
2022-11-14T17:46:40.430Z,65.00
2022-11-14T17:49:06.885Z,61.22
2022-11-14T17:51:33.508Z,58.30
2022-11-14T17:53:59.974Z,60.80
2022-11-14T17:56:27.055Z,56.00
2022-11-14T17:58:53.569Z,59.80
2022-11-14T18:01:23.072Z,60.83
2022-11-14T18:03:50.268Z,62.40
2022-11-14T18:06:21.563Z,59.38
2022-11-14T18:08:48.414Z,61.75
2022-11-14T18:11:16.423Z,59.53
2022-11-14T18:13:42.888Z,58.22
2022-11-14T18:16:13.053Z,61.72
2022-11-14T18:18:39.624Z,58.50
2022-11-14T18:21:16.024Z,59.45
2022-11-14T18:23:42.858Z,62.83
2022-11-14T18:26:10.753Z,55.40
2022-11-14T18:28:37.238Z,57.05
2022-11-14T18:31:04.572Z,59.05
2022-11-14T18:33:31.162Z,55.75
2022-11-14T18:35:58.707Z,59.20
2022-11-14T18:38:25.511Z,59.28
2022-11-14T18:40:57.346Z,54.90
2022-11-14T18:43:24.206Z,58.75
2022-11-14T18:45:50.963Z,57.05
2022-11-14T18:48:17.716Z,58.13
2022-11-14T18:50:44.188Z,57.65
2022-11-14T18:53:10.640Z,55.20
2022-11-14T18:55:40.664Z,53.17
2022-11-14T18:58:07.397Z,52.88
2022-11-14T19:00:33.906Z,56.97
2022-11-14T19:03:05.823Z,56.47
2022-11-14T19:05:35.246Z,54.65
2022-11-14T19:08:01.968Z,54.10
2022-11-14T19:10:28.515Z,57.45
2022-11-14T19:12:54.971Z,55.53
2022-11-14T19:15:21.426Z,60.60
2022-11-14T19:17:48.506Z,53.10
2022-11-14T19:20:15.057Z,57.88
2022-11-14T19:22:41.560Z,57.28
2022-11-14T19:25:09.140Z,56.92
2022-11-14T19:27:35.591Z,56.53
2022-11-14T19:30:02.088Z,56.55
2022-11-14T19:32:28.584Z,51.55
2022-11-14T19:34:55.034Z,56.58
2022-11-14T19:37:21.536Z,58.70
2022-11-14T19:39:49.695Z,55.35
2022-11-14T19:42:16.230Z,53.30
2022-11-14T19:44:42.684Z,53.08
2022-11-14T19:47:09.227Z,53.58
2022-11-14T19:49:35.675Z,53.58
2022-11-14T19:52:02.170Z,56.95
2022-11-14T19:54:28.612Z,54.38
2022-11-14T19:56:55.172Z,47.13
2022-11-14T19:59:24.611Z,56.45
2022-11-14T20:01:55.144Z,51.47
2022-11-14T20:04:22.012Z,55.60
2022-11-14T20:06:48.605Z,52.13
2022-11-14T20:09:16.455Z,54.55
2022-11-14T20:11:42.924Z,54.60
2022-11-14T20:14:10.786Z,51.25
2022-11-14T20:16:37.327Z,51.28
2022-11-14T20:19:04.057Z,50.83
2022-11-14T20:21:31.983Z,53.95
2022-11-14T20:23:58.471Z,53.30
2022-11-14T20:26:25.161Z,52.47
2022-11-14T20:28:53.684Z,48.25
2022-11-14T20:31:25.858Z,49.58
2022-11-14T20:33:53.615Z,50.95
2022-11-14T20:36:24.564Z,53.45
2022-11-14T20:38:52.113Z,49.53
2022-11-14T20:41:19.249Z,52.38
2022-11-14T20:43:45.734Z,51.70
2022-11-14T20:46:14.836Z,52.10
2022-11-14T20:48:41.695Z,53.38
2022-11-14T20:51:22.823Z,52.38
2022-11-14T20:53:50.829Z,56.70
2022-11-14T20:56:17.568Z,55.55
2022-11-14T20:58:45.406Z,55.85
2022-11-14T21:01:12.761Z,46.90
2022-11-14T21:03:39.776Z,53.30
2022-11-14T21:06:11.117Z,53.33
2022-11-14T21:08:37.845Z,56.60
2022-11-14T21:11:11.050Z,51.85
2022-11-14T21:13:58.896Z,58.20
2022-11-14T21:16:37.207Z,54.00
2022-11-14T21:19:04.680Z,56.47
2022-11-14T21:21:34.785Z,55.83
2022-11-14T21:24:01.339Z,55.83
2022-11-14T21:26:32.649Z,56.67
2022-11-14T21:29:08.968Z,55.90
2022-11-14T21:31:37.587Z,60.38
2022-11-14T21:34:05.645Z,56.03
2022-11-14T21:36:47.738Z,52.15
2022-11-14T21:39:16.162Z,55.95
2022-11-14T21:41:43.895Z,59.55
2022-11-14T21:44:13.004Z,54.88
2022-11-14T21:46:40.438Z,59.05
2022-11-14T21:49:06.888Z,54.20
2022-11-14T21:51:33.352Z,58.17
2022-11-14T21:54:00.105Z,55.40
2022-11-14T21:56:31.417Z,60.15
2022-11-14T21:59:12.810Z,58.85
2022-11-14T22:02:08.643Z,59.90
2022-11-14T22:04:36.073Z,56.78
2022-11-14T22:07:04.849Z,60.17
2022-11-14T22:09:31.953Z,57.22
2022-11-14T22:11:58.951Z,58.13
2022-11-14T22:14:25.416Z,58.30
2022-11-14T22:16:51.877Z,61.25
2022-11-14T22:19:18.865Z,59.33
2022-11-14T22:21:45.712Z,60.88
2022-11-14T22:24:12.153Z,56.85
2022-11-14T22:26:40.046Z,57.38
2022-11-14T22:29:07.359Z,58.40
2022-11-14T22:31:34.324Z,56.75
2022-11-14T22:34:00.793Z,59.80
2022-11-14T22:36:27.264Z,64.60
2022-11-14T22:38:55.250Z,59.20
2022-11-14T22:41:31.524Z,55.90
2022-11-14T22:43:58.959Z,60.42
2022-11-14T22:46:25.650Z,58.08
2022-11-14T22:48:52.205Z,57.58
2022-11-14T22:51:20.873Z,64.43
2022-11-14T22:53:50.353Z,65.40
2022-11-14T22:56:18.707Z,56.88
2022-11-14T22:58:46.153Z,65.30
2022-11-14T23:01:19.123Z,58.70
2022-11-14T23:03:47.965Z,58.03
2022-11-14T23:06:16.809Z,61.30
2022-11-14T23:08:43.794Z,57.92
2022-11-14T23:11:16.154Z,60.63
2022-11-14T23:13:53.289Z,64.80
2022-11-14T23:16:28.905Z,54.08
2022-11-14T23:18:57.755Z,61.30
2022-11-14T23:21:30.291Z,62.47
2022-11-14T23:23:58.682Z,59.78
2022-11-14T23:26:26.061Z,59.45
2022-11-14T23:28:52.621Z,68.97
2022-11-14T23:31:19.369Z,63.60
2022-11-14T23:33:50.553Z,60.45
2022-11-14T23:36:17.486Z,63.90
2022-11-14T23:38:44.061Z,63.05
2022-11-14T23:41:18.774Z,60.10
2022-11-14T23:43:45.721Z,61.75
2022-11-14T23:46:12.582Z,58.08
2022-11-14T23:48:39.141Z,58.28
2022-11-14T23:51:05.646Z,56.25
2022-11-14T23:53:32.527Z,56.95
2022-11-14T23:56:00.972Z,58.90
2022-11-14T23:58:28.168Z,56.42
